Time;durP1;ratioP1;P1;durP2;ratioP2;P2;SDS_P1;SDS_P2;PMS_P1;PMS_P2;Temp;Humidity;BMP_temperature;BMP_pressure;BME280_temperature;BME280_humidity;BME280_pressure;Samples;Min_cycle;Max_cycle;Signal;HPM_P1;HPM_P2
2022/03/10 00:00:20;;;;;;;25.17;14.52;;;;;;;-1.85;70.93;94936.41;5072480;28;20032;-78
2022/03/10 00:02:45;;;;;;;22.90;14.27;;;;;;;-1.88;70.68;94916.16;5071836;28;20059;-77
2022/03/10 00:05:12;;;;;;;20.88;13.52;;;;;;;-1.86;71.10;94919.50;5055300;28;20569;-77
2022/03/10 00:07:37;;;;;;;20.70;13.45;;;;;;;-1.78;71.18;94933.66;5055160;28;20112;-77
2022/03/10 00:10:03;;;;;;;21.98;14.13;;;;;;;-1.75;71.45;94925.94;5071779;28;20032;-76
2022/03/10 00:12:29;;;;;;;23.25;14.82;;;;;;;-1.71;71.55;94928.31;5071938;28;20290;-78
2022/03/10 00:14:54;;;;;;;22.10;15.02;;;;;;;-1.66;70.95;94921.38;5055099;28;20414;-77
2022/03/10 00:17:19;;;;;;;20.20;13.65;;;;;;;-1.68;70.77;94919.75;5054916;28;20466;-76
2022/03/10 00:19:45;;;;;;;22.27;14.50;;;;;;;-1.62;70.79;94919.53;5071623;28;20017;-77
2022/03/10 00:22:11;;;;;;;20.05;14.25;;;;;;;-1.63;70.30;94920.44;5085716;28;20039;-77
2022/03/10 00:24:38;;;;;;;23.27;14.98;;;;;;;-1.63;70.46;94913.63;5075079;28;20040;-77
2022/03/10 00:27:04;;;;;;;20.13;13.65;;;;;;;-1.68;70.56;94909.56;5071136;28;20031;-77
2022/03/10 00:29:30;;;;;;;22.48;14.15;;;;;;;-1.66;70.68;94918.81;5054876;28;20418;-77
2022/03/10 00:31:55;;;;;;;19.50;13.55;;;;;;;-1.64;70.36;94916.22;5071126;28;20039;-77
2022/03/10 00:34:20;;;;;;;19.25;13.13;;;;;;;-1.62;69.92;94922.09;5076970;28;20047;-76
2022/03/10 00:36:46;;;;;;;20.52;13.10;;;;;;;-1.66;69.81;94923.91;5074514;28;20494;-77
2022/03/10 00:39:11;;;;;;;22.17;14.85;;;;;;;-1.82;70.00;94908.31;5091310;28;20052;-77
2022/03/10 00:41:37;;;;;;;21.25;14.27;;;;;;;-1.88;70.17;94912.78;5057811;28;20077;-77
2022/03/10 00:44:02;;;;;;;19.52;14.25;;;;;;;-1.92;70.85;94919.69;5092870;28;20039;-76
2022/03/10 00:46:28;;;;;;;23.45;14.65;;;;;;;-1.96;70.82;94902.00;5084587;28;20070;-77
2022/03/10 00:48:53;;;;;;;24.48;14.15;;;;;;;-1.96;70.55;94913.03;5064989;28;20032;-77
2022/03/10 00:51:19;;;;;;;20.70;14.13;;;;;;;-2.02;70.66;94908.97;5065081;28;20422;-77
2022/03/10 00:53:45;;;;;;;23.67;14.07;;;;;;;-2.01;70.70;94909.78;5079826;28;20478;-77
2022/03/10 00:56:10;;;;;;;21.23;12.82;;;;;;;-2.03;70.73;94904.75;5083120;28;20032;-77
2022/03/10 00:58:36;;;;;;;24.85;14.50;;;;;;;-2.02;70.63;94903.03;5053761;28;20482;-77
2022/03/10 01:01:01;;;;;;;22.48;14.15;;;;;;;-2.09;70.65;94901.56;5072125;28;20032;-77
2022/03/10 01:03:26;;;;;;;22.58;14.32;;;;;;;-2.15;70.98;94906.84;5070697;28;20540;-77
2022/03/10 01:05:52;;;;;;;21.98;14.23;;;;;;;-2.14;71.39;94903.44;5071768;28;20025;-77
2022/03/10 01:08:17;;;;;;;24.88;13.95;;;;;;;-2.19;71.20;94908.69;5070685;28;20037;-77
2022/03/10 01:10:43;;;;;;;19.40;12.75;;;;;;;-2.22;71.01;94907.94;5070460;28;20016;-77
2022/03/10 01:13:15;;;;;;;18.38;12.65;;;;;;;-2.25;71.09;94903.78;5070835;28;20037;-77
2022/03/10 01:15:41;;;;;;;20.08;12.68;;;;;;;-2.30;70.18;94893.75;5087343;28;20060;-77
2022/03/10 01:18:07;;;;;;;19.85;13.45;;;;;;;-2.30;70.93;94895.44;5053850;28;20115;-77
2022/03/10 01:20:33;;;;;;;17.88;12.48;;;;;;;-2.30;70.93;94898.00;5053856;28;20032;-77
2022/03/10 01:22:58;;;;;;;18.58;12.35;;;;;;;-2.34;70.87;94896.41;5070346;28;20513;-77
2022/03/10 01:25:23;;;;;;;21.73;13.02;;;;;;;-2.28;71.00;94904.72;5053498;28;20033;-77
2022/03/10 01:27:49;;;;;;;20.20;12.75;;;;;;;-2.35;71.19;94884.59;5070199;28;20474;-77
2022/03/10 01:30:14;;;;;;;20.42;12.38;;;;;;;-2.35;71.03;94887.97;5070299;28;20573;-77
2022/03/10 01:32:40;;;;;;;22.58;13.63;;;;;;;-2.29;71.13;94894.56;5069990;28;20040;-77
2022/03/10 01:35:06;;;;;;;22.20;14.80;;;;;;;-2.34;71.40;94897.28;5053210;28;20035;-77
2022/03/10 01:37:36;;;;;;;21.35;13.50;;;;;;;-2.40;71.74;94889.81;5053380;28;20059;-77
2022/03/10 01:40:03;;;;;;;21.90;13.35;;;;;;;-2.38;71.61;94892.31;5038032;28;20056;-77
2022/03/10 01:42:29;;;;;;;20.52;13.35;;;;;;;-2.37;71.61;94891.44;5069824;28;20560;-77
2022/03/10 01:44:54;;;;;;;20.70;13.93;;;;;;;-2.35;71.43;94892.22;5070123;28;20033;-77
2022/03/10 01:47:20;;;;;;;22.42;13.32;;;;;;;-2.36;71.53;94893.94;5069713;28;20020;-77
2022/03/10 01:49:45;;;;;;;19.08;12.05;;;;;;;-2.38;71.62;94892.31;5069883;28;20055;-76
2022/03/10 01:52:11;;;;;;;21.00;13.20;;;;;;;-2.36;71.10;94885.47;5069800;28;20032;-77
2022/03/10 01:54:36;;;;;;;21.52;13.38;;;;;;;-2.35;71.47;94894.75;5070311;28;20036;-77
2022/03/10 01:57:02;;;;;;;24.15;13.43;;;;;;;-2.41;71.39;94890.69;5053356;28;20032;-76
2022/03/10 01:59:28;;;;;;;23.83;13.48;;;;;;;-2.36;71.12;94888.03;5036944;28;20479;-77
2022/03/10 02:01:53;;;;;;;21.58;14.05;;;;;;;-2.40;71.12;94897.44;5036668;28;20499;-77
2022/03/10 02:04:18;;;;;;;21.55;14.27;;;;;;;-2.39;71.20;94900.84;5053456;28;20460;-77
2022/03/10 02:06:44;;;;;;;22.65;14.00;;;;;;;-2.53;70.74;94886.00;5053211;28;20631;-77
2022/03/10 02:11:53;;;;;;;22.50;13.93;;;;;;;-2.54;70.69;94899.59;5055726;28;20054;-77
2022/03/10 02:17:21;;;;;;;20.40;13.23;;;;;;;-2.75;70.15;94898.53;5069947;28;20115;-77
2022/03/10 02:19:51;;;;;;;18.92;12.90;;;;;;;-2.85;69.09;94897.97;5070120;28;20521;-77
2022/03/10 02:22:16;;;;;;;20.27;13.57;;;;;;;-3.01;69.61;94896.72;5036653;28;20570;-77
2022/03/10 02:24:43;;;;;;;20.35;13.15;;;;;;;-3.06;69.56;94907.06;5055713;28;20119;-76
2022/03/10 02:27:21;;;;;;;21.13;13.63;;;;;;;-3.12;69.47;94899.59;5057331;28;20077;-77
2022/03/10 02:29:51;;;;;;;21.48;13.88;;;;;;;-3.16;69.89;94905.63;5074113;28;20040;-77
2022/03/10 02:32:16;;;;;;;22.55;13.60;;;;;;;-3.23;69.33;94904.13;5057095;28;20028;-77
2022/03/10 02:34:42;;;;;;;23.33;13.35;;;;;;;-3.35;69.29;94904.47;5062583;28;20445;-75
2022/03/10 02:37:08;;;;;;;20.42;12.50;;;;;;;-3.43;69.38;94902.13;5090561;28;20025;-77
2022/03/10 02:39:33;;;;;;;21.45;13.43;;;;;;;-3.47;69.19;94910.72;5090412;28;20061;-77
2022/03/10 02:41:59;;;;;;;19.00;12.80;;;;;;;-3.55;69.61;94908.38;5056850;28;20028;-77
2022/03/10 02:44:24;;;;;;;18.25;12.40;;;;;;;-3.64;69.54;94904.38;5073574;28;20036;-77
2022/03/10 02:46:51;;;;;;;21.55;12.88;;;;;;;-3.62;69.94;94915.34;5073544;28;20101;-77
2022/03/10 02:49:16;;;;;;;20.80;12.63;;;;;;;-3.69;69.28;94911.28;5075286;28;20029;-77
2022/03/10 02:51:42;;;;;;;23.00;12.98;;;;;;;-3.85;69.64;94910.00;5056619;28;20021;-77
2022/03/10 02:54:07;;;;;;;19.23;13.35;;;;;;;-3.89;69.57;94910.97;5073405;28;20033;-76
2022/03/10 02:56:33;;;;;;;20.60;12.70;;;;;;;-3.89;69.63;94918.59;5090272;28;20058;-77
2022/03/10 02:58:58;;;;;;;23.05;14.07;;;;;;;-3.99;69.37;94910.34;5074873;28;20082;-77
2022/03/10 03:01:24;;;;;;;23.45;14.65;;;;;;;-3.87;70.12;94924.47;5074428;28;20051;-77
2022/03/10 03:03:49;;;;;;;24.75;15.73;;;;;;;-3.91;69.47;94921.16;5073314;28;20033;-77
2022/03/10 03:06:15;;;;;;;22.85;14.20;;;;;;;-3.95;69.71;94916.22;5073126;28;20028;-77
2022/03/10 03:08:41;;;;;;;24.40;14.93;;;;;;;-3.90;69.18;94921.97;5074618;28;20051;-77
2022/03/10 03:11:06;;;;;;;24.30;13.90;;;;;;;-3.94;69.12;94930.56;5072959;28;20032;-77
2022/03/10 03:13:32;;;;;;;22.92;13.43;;;;;;;-4.04;69.46;94914.72;5072830;28;20033;-77
2022/03/10 03:15:57;;;;;;;23.05;12.95;;;;;;;-4.10;70.09;94905.53;5089781;28;20032;-77
2022/03/10 03:18:22;;;;;;;20.08;12.15;;;;;;;-4.02;69.30;94919.75;5073177;28;20086;-77
2022/03/10 03:20:48;;;;;;;19.77;12.38;;;;;;;-4.02;69.65;94923.13;5072853;28;20025;-77
2022/03/10 03:23:13;;;;;;;21.88;12.27;;;;;;;-3.93;70.54;94933.06;5074140;28;20040;-77
2022/03/10 03:25:39;;;;;;;19.02;11.45;;;;;;;-4.02;70.16;94932.44;5074285;28;20075;-76
2022/03/10 03:28:04;;;;;;;20.25;11.68;;;;;;;-4.05;70.03;94936.72;5072671;28;20078;-78
2022/03/10 03:30:30;;;;;;;17.15;10.73;;;;;;;-4.05;69.42;94944.34;5072711;28;20032;-77
2022/03/10 03:32:55;;;;;;;20.42;10.88;;;;;;;-4.12;69.26;94950.44;5089428;28;20037;-77
2022/03/10 03:35:20;;;;;;;19.70;10.95;;;;;;;-4.12;68.86;94958.06;5091764;28;20035;-77
2022/03/10 03:37:46;;;;;;;20.98;11.27;;;;;;;-4.17;68.80;94953.97;5076023;28;20024;-77
2022/03/10 03:40:12;;;;;;;17.88;10.63;;;;;;;-4.16;68.67;94961.53;5094192;28;20489;-77
2022/03/10 03:42:37;;;;;;;18.80;11.43;;;;;;;-4.15;68.95;94954.75;5092682;28;20042;-77
2022/03/10 03:45:04;;;;;;;18.80;11.23;;;;;;;-4.22;68.41;94945.63;5059307;28;20032;-76
2022/03/10 03:47:29;;;;;;;20.65;12.05;;;;;;;-4.20;68.21;94954.88;5092607;28;20474;-77
2022/03/10 03:49:55;;;;;;;15.55;9.55;;;;;;;-4.35;67.60;94942.53;5092736;28;20020;-77
2022/03/10 03:52:20;;;;;;;13.50;8.50;;;;;;;-4.33;66.13;94963.63;5092506;28;20501;-76
2022/03/10 03:54:46;;;;;;;14.00;7.85;;;;;;;-4.41;66.23;94948.56;5058946;28;20070;-77
2022/03/10 03:57:11;;;;;;;15.02;8.68;;;;;;;-4.41;65.99;94952.81;5092350;28;20024;-77
2022/03/10 03:59:37;;;;;;;11.00;6.95;;;;;;;-4.40;65.29;94951.94;5075914;28;20036;-77
2022/03/10 04:02:03;;;;;;;11.80;8.10;;;;;;;-4.40;65.45;94964.63;5092364;28;20414;-77
2022/03/10 04:04:29;;;;;;;12.88;8.35;;;;;;;-4.46;66.11;94964.75;5093846;28;20157;-77
2022/03/10 04:06:54;;;;;;;11.00;7.18;;;;;;;-4.53;66.19;94969.13;5093384;28;20028;-77
2022/03/10 04:09:19;;;;;;;12.35;7.80;;;;;;;-4.56;65.56;94967.50;5092326;28;20028;-77
2022/03/10 04:11:45;;;;;;;12.70;7.93;;;;;;;-4.62;66.10;94970.19;5075152;28;20085;-77
2022/03/10 04:14:11;;;;;;;12.35;6.85;;;;;;;-4.76;65.27;94972.19;5091992;28;20120;-77
2022/03/10 04:16:37;;;;;;;12.63;8.07;;;;;;;-4.84;65.63;94971.50;5091950;28;20036;-77
2022/03/10 04:19:02;;;;;;;12.90;7.65;;;;;;;-4.92;65.25;94973.34;5092078;28;20036;-77
2022/03/10 04:21:28;;;;;;;14.48;8.13;;;;;;;-5.02;64.82;94980.28;5075069;28;20054;-77
2022/03/10 04:23:53;;;;;;;11.82;7.43;;;;;;;-5.11;65.38;94977.94;5074818;28;20040;-77
2022/03/10 04:26:18;;;;;;;13.77;7.43;;;;;;;-5.18;66.25;94982.31;5074814;28;20028;-77
2022/03/10 04:28:44;;;;;;;10.75;6.78;;;;;;;-5.33;65.94;94983.41;5091869;28;20066;-77
2022/03/10 04:31:09;;;;;;;13.45;9.25;;;;;;;-5.43;66.12;94976.88;5074697;28;20422;-77
2022/03/10 04:33:37;;;;;;;11.40;7.88;;;;;;;-5.49;66.62;94993.00;5091539;28;20115;-77
2022/03/10 04:36:02;;;;;;;11.98;7.60;;;;;;;-5.59;65.67;94998.25;5072477;28;20478;-77
2022/03/10 04:38:28;;;;;;;10.55;6.90;;;;;;;-5.65;66.28;95004.25;5071256;28;20102;-77
2022/03/10 04:40:53;;;;;;;11.18;6.00;;;;;;;-5.84;66.17;94994.44;5071328;28;20040;-77
2022/03/10 04:43:19;;;;;;;10.77;6.05;;;;;;;-5.84;66.75;95009.63;5071143;28;20040;-77
2022/03/10 04:45:44;;;;;;;11.40;7.43;;;;;;;-5.80;66.93;95001.97;5054337;28;20031;-77
2022/03/10 04:48:10;;;;;;;9.93;6.65;;;;;;;-5.85;67.65;95005.44;5072397;28;20037;-77
2022/03/10 04:50:35;;;;;;;6.82;4.90;;;;;;;-5.81;67.48;95015.50;5054447;28;20035;-77
2022/03/10 04:53:01;;;;;;;7.90;5.25;;;;;;;-5.94;67.16;95010.66;5072273;28;20470;-77
2022/03/10 04:55:26;;;;;;;9.88;5.70;;;;;;;-5.92;67.98;95013.13;5054114;28;20457;-77
2022/03/10 04:57:52;;;;;;;10.13;5.85;;;;;;;-5.93;68.35;95017.38;5071960;28;20457;-77
2022/03/10 05:00:19;;;;;;;9.75;5.47;;;;;;;-5.83;68.47;95023.09;5070925;28;20426;-77
2022/03/10 05:02:44;;;;;;;9.15;5.68;;;;;;;-5.81;68.32;95026.44;5070784;28;20033;-77
2022/03/10 05:05:12;;;;;;;8.25;5.35;;;;;;;-5.75;68.31;95026.34;5053978;28;20067;-77
2022/03/10 05:07:37;;;;;;;10.20;6.07;;;;;;;-5.72;67.64;95038.13;5070695;28;20033;-77
2022/03/10 05:10:04;;;;;;;8.32;5.18;;;;;;;-5.70;67.56;95033.88;5071989;28;20028;-77
2022/03/10 05:12:29;;;;;;;9.32;5.75;;;;;;;-5.61;67.98;95038.78;5070495;28;20391;-77
2022/03/10 05:14:54;;;;;;;9.30;5.07;;;;;;;-5.49;68.17;95041.13;5072090;28;20059;-77
2022/03/10 05:17:21;;;;;;;7.15;4.90;;;;;;;-5.46;67.38;95043.59;5070634;28;20169;-76
2022/03/10 05:19:46;;;;;;;9.75;5.90;;;;;;;-5.41;67.62;95046.03;5070920;28;20021;-77
2022/03/10 05:22:12;;;;;;;8.13;5.10;;;;;;;-5.33;68.11;95050.97;5071641;28;20028;-77
2022/03/10 05:24:37;;;;;;;7.72;4.72;;;;;;;-5.24;67.76;95053.31;5081666;28;20086;-77
2022/03/10 05:27:03;;;;;;;7.40;4.90;;;;;;;-5.17;67.71;95065.03;5089537;28;20031;-77
2022/03/10 05:29:28;;;;;;;7.95;4.63;;;;;;;-5.11;67.98;95061.56;5071156;28;20024;-77
2022/03/10 05:31:54;;;;;;;8.25;5.38;;;;;;;-5.06;68.12;95063.13;5090297;28;20061;-77
2022/03/10 05:34:19;;;;;;;6.85;4.45;;;;;;;-5.00;67.89;95072.31;5084098;28;20153;-77
2022/03/10 05:36:45;;;;;;;6.70;4.40;;;;;;;-4.90;67.26;95072.97;5085242;28;20501;-77
2022/03/10 05:39:10;;;;;;;5.80;3.70;;;;;;;-4.82;67.36;95071.13;5058281;28;20049;-77
2022/03/10 05:41:36;;;;;;;7.25;4.60;;;;;;;-4.76;67.44;95069.34;5081973;28;20032;-77
2022/03/10 05:44:01;;;;;;;5.60;3.80;;;;;;;-4.70;67.43;95075.97;5050923;28;20083;-77
2022/03/10 05:46:26;;;;;;;9.30;4.90;;;;;;;-4.72;67.75;95088.69;5048102;28;20037;-77
2022/03/10 05:48:52;;;;;;;6.60;3.90;;;;;;;-4.71;67.79;95084.44;5088463;28;20036;-77
2022/03/10 05:51:17;;;;;;;6.68;4.13;;;;;;;-4.68;67.64;95084.41;5070026;28;20027;-77
2022/03/10 05:53:43;;;;;;;6.55;3.97;;;;;;;-4.61;67.75;95098.63;5086827;28;20568;-77
2022/03/10 05:56:08;;;;;;;5.82;3.83;;;;;;;-4.56;67.74;95099.38;5087298;28;20027;-77
2022/03/10 05:58:34;;;;;;;6.40;3.88;;;;;;;-4.58;67.22;95098.56;5068867;28;20043;-77
2022/03/10 06:00:59;;;;;;;6.97;4.68;;;;;;;-4.57;67.17;95097.72;5089036;28;20039;-77
2022/03/10 06:03:25;;;;;;;11.85;5.45;;;;;;;-4.52;66.95;95106.03;5068957;28;20028;-76
2022/03/10 06:05:50;;;;;;;6.07;4.25;;;;;;;-4.50;67.07;95103.47;5070147;28;20035;-77
2022/03/10 06:08:16;;;;;;;7.28;4.82;;;;;;;-4.41;67.14;95102.47;5088147;28;20040;-76
2022/03/10 06:10:41;;;;;;;8.07;5.30;;;;;;;-4.31;66.75;95103.94;5071097;28;20028;-76
2022/03/10 06:13:07;;;;;;;8.07;4.63;;;;;;;-4.32;66.51;95112.41;5088167;28;20050;-76
2022/03/10 06:15:32;;;;;;;7.00;4.53;;;;;;;-4.08;66.64;95108.53;5086190;28;20089;-77
2022/03/10 06:17:58;;;;;;;8.75;5.15;;;;;;;-3.68;65.97;95110.19;5062098;28;20161;-77
2022/03/10 06:20:23;;;;;;;7.95;4.95;;;;;;;-3.05;63.74;95108.69;5051053;28;20388;-77
2022/03/10 06:22:49;;;;;;;8.65;5.00;;;;;;;-2.84;62.16;95115.78;5075697;28;20467;-77
2022/03/10 06:25:14;;;;;;;9.05;5.40;;;;;;;-2.29;61.45;95116.81;5036393;28;20399;-77
2022/03/10 06:27:39;;;;;;;9.25;5.60;;;;;;;-2.17;60.38;95108.03;5069600;28;20483;-76
2022/03/10 06:30:05;;;;;;;9.25;5.60;;;;;;;-2.03;60.27;95112.72;5037568;28;20411;-77
2022/03/10 06:32:31;;;;;;;7.90;5.22;;;;;;;-1.83;59.05;95119.75;5083286;28;20048;-77
2022/03/10 06:34:59;;;;;;;8.93;5.90;;;;;;;-1.62;59.07;95119.09;5077552;28;20029;-76
2022/03/10 06:37:25;;;;;;;10.13;6.38;;;;;;;-1.28;58.06;95124.84;5080874;28;20483;-76
2022/03/10 06:39:50;;;;;;;10.27;6.03;;;;;;;-0.33;56.86;95127.63;5072803;28;20053;-76
2022/03/10 06:42:16;;;;;;;11.10;6.13;;;;;;;0.45;54.87;95126.47;5090969;28;20490;-76
2022/03/10 06:44:41;;;;;;;11.93;6.43;;;;;;;1.11;52.36;95119.59;5091298;28;20043;-76
2022/03/10 06:47:09;;;;;;;10.15;6.53;;;;;;;1.78;50.47;95117.59;5085789;28;20028;-76
2022/03/10 06:49:34;;;;;;;9.68;6.93;;;;;;;2.54;48.51;95126.16;5086914;28;20549;-76
2022/03/10 06:52:00;;;;;;;9.35;6.55;;;;;;;3.16;46.38;95136.09;5055075;28;20042;-76
2022/03/10 06:54:25;;;;;;;11.80;7.32;;;;;;;3.73;44.00;95137.50;5069855;28;20036;-76
2022/03/10 06:56:51;;;;;;;10.80;7.35;;;;;;;4.26;40.63;95135.59;5072683;28;20048;-76
2022/03/10 06:59:17;;;;;;;8.55;5.93;;;;;;;4.63;37.00;95131.91;5079772;28;20138;-75
2022/03/10 07:01:42;;;;;;;8.35;6.07;;;;;;;4.73;36.18;95133.97;5080124;28;20035;-75
2022/03/10 07:04:07;;;;;;;15.35;9.05;;;;;;;4.39;37.15;95140.94;5070569;28;20040;-74
2022/03/10 07:06:33;;;;;;;27.23;13.25;;;;;;;3.89;38.70;95142.66;5080833;28;20024;-76
2022/03/10 07:08:58;;;;;;;27.48;15.07;;;;;;;4.11;38.65;95144.97;5084820;28;20032;-75
2022/03/10 07:11:25;;;;;;;17.90;9.85;;;;;;;3.23;39.41;95146.00;5078842;28;20028;-76
2022/03/10 07:13:50;;;;;;;13.63;7.95;;;;;;;2.91;39.11;95148.34;5077554;28;20040;-74
2022/03/10 07:16:16;;;;;;;23.25;12.63;;;;;;;3.42;39.94;95138.19;5063952;28;20050;-73
2022/03/10 07:18:41;;;;;;;16.88;9.02;;;;;;;3.84;38.99;95149.78;5089136;28;20035;-73
2022/03/10 07:21:07;;;;;;;28.40;14.45;;;;;;;4.00;38.54;95154.97;5073664;28;20063;-73
2022/03/10 07:23:32;;;;;;;15.63;9.80;;;;;;;4.01;37.94;95152.34;5085685;28;20097;-72
2022/03/10 07:25:58;;;;;;;15.27;10.20;;;;;;;4.18;38.00;95148.03;5080181;28;20032;-74
2022/03/10 07:28:23;;;;;;;12.48;8.20;;;;;;;4.17;36.37;95151.53;5091652;28;20028;-74
2022/03/10 07:30:49;;;;;;;7.90;5.20;;;;;;;3.76;36.89;95157.03;5072030;28;20039;-76
2022/03/10 07:33:14;;;;;;;11.30;6.40;;;;;;;3.56;36.27;95156.31;5074121;28;20089;-78
2022/03/10 07:35:40;;;;;;;9.27;5.18;;;;;;;2.84;36.51;95156.41;5075192;28;20036;-77
2022/03/10 07:38:05;;;;;;;7.88;5.15;;;;;;;2.40;37.72;95156.75;5050784;28;20024;-77
2022/03/10 07:40:31;;;;;;;8.38;5.22;;;;;;;1.75;39.84;95162.13;5070087;28;20052;-77
2022/03/10 07:42:56;;;;;;;7.60;5.13;;;;;;;1.33;39.27;95163.03;5082805;28;20040;-82
2022/03/10 07:45:22;;;;;;;9.63;5.57;;;;;;;1.41;39.71;95167.84;5076187;28;20043;-76
2022/03/10 07:47:47;;;;;;;8.02;4.57;;;;;;;1.22;40.59;95165.19;5057402;28;20053;-77
2022/03/10 07:50:12;;;;;;;8.43;4.82;;;;;;;1.16;40.25;95160.31;5070562;28;20035;-76
2022/03/10 07:52:39;;;;;;;6.95;4.43;;;;;;;1.22;39.25;95177.16;5083232;28;20025;-76
2022/03/10 07:55:05;;;;;;;7.18;4.88;;;;;;;0.96;39.61;95167.97;5091496;28;20071;-75
2022/03/10 07:57:31;;;;;;;9.45;6.32;;;;;;;1.09;40.24;95172.53;5068671;28;20016;-75
2022/03/10 07:59:56;;;;;;;10.50;6.13;;;;;;;1.16;41.11;95169.72;5078213;28;20037;-76
2022/03/10 08:02:22;;;;;;;8.68;4.78;;;;;;;1.14;39.23;95174.06;5080850;28;20024;-73
2022/03/10 08:04:48;;;;;;;8.52;5.68;;;;;;;1.11;39.64;95172.47;5073462;28;20142;-75
2022/03/10 08:07:13;;;;;;;7.13;4.82;;;;;;;1.08;39.49;95172.59;5059194;28;20021;-73
2022/03/10 08:09:38;;;;;;;8.15;6.15;;;;;;;1.13;39.52;95170.69;5074362;28;20025;-75
2022/03/10 08:12:04;;;;;;;7.05;5.03;;;;;;;1.33;37.58;95175.81;5081132;28;20028;-75
2022/03/10 08:14:30;;;;;;;6.57;3.47;;;;;;;1.16;37.39;95174.84;5072677;28;20032;-77
2022/03/10 08:16:55;;;;;;;5.93;3.70;;;;;;;1.26;37.78;95184.66;5070382;28;20103;-76
2022/03/10 08:19:21;;;;;;;6.25;4.00;;;;;;;1.37;38.19;95180.84;5078492;28;20040;-75
2022/03/10 08:21:47;;;;;;;6.38;3.90;;;;;;;1.24;39.14;95183.88;5065719;28;20052;-75
2022/03/10 08:24:13;;;;;;;5.55;3.47;;;;;;;1.25;38.34;95184.72;5063246;28;20028;-76
2022/03/10 08:26:39;;;;;;;6.47;4.03;;;;;;;1.29;38.60;95187.09;5052820;28;20320;-76
2022/03/10 08:29:04;;;;;;;6.05;4.15;;;;;;;1.24;37.71;95194.13;5061730;28;20039;-76
2022/03/10 08:31:30;;;;;;;6.43;3.15;;;;;;;1.06;37.94;95187.19;5075906;28;20105;-76
2022/03/10 08:33:55;;;;;;;6.78;3.53;;;;;;;0.85;39.60;95194.81;5089143;28;20389;-76
2022/03/10 08:36:21;;;;;;;7.30;3.90;;;;;;;0.63;39.15;95188.84;5089371;28;20025;-76
2022/03/10 08:38:46;;;;;;;18.00;6.13;;;;;;;0.21;40.58;95190.38;5089251;28;20052;-76
2022/03/10 08:41:12;;;;;;;7.25;4.00;;;;;;;0.15;39.42;95200.84;5090325;28;20026;-76
2022/03/10 08:43:37;;;;;;;6.72;3.60;;;;;;;-0.28;40.19;95187.03;5091471;28;20422;-76
2022/03/10 08:46:03;;;;;;;7.03;3.58;;;;;;;-0.55;40.54;95193.91;5091261;28;20498;-76
2022/03/10 08:48:31;;;;;;;5.50;3.40;;;;;;;-0.87;41.98;95189.00;5074383;28;20071;-76
2022/03/10 08:51:00;;;;;;;5.22;3.70;;;;;;;-0.78;42.21;95196.34;5073921;28;20024;-76
2022/03/10 08:53:26;;;;;;;8.55;4.65;;;;;;;-0.82;43.31;95197.34;5058411;28;20036;-76
2022/03/10 08:55:51;;;;;;;5.80;3.75;;;;;;;-0.78;42.42;95198.91;5082171;28;20028;-76
2022/03/10 08:58:18;;;;;;;5.88;3.75;;;;;;;-0.73;42.79;95197.88;5091149;28;20093;-76
2022/03/10 09:00:43;;;;;;;6.40;3.95;;;;;;;-0.62;42.43;95187.31;5076314;28;20044;-76
2022/03/10 09:03:09;;;;;;;7.68;3.97;;;;;;;-0.61;41.61;95189.00;5087537;28;20075;-76
2022/03/10 09:05:36;;;;;;;6.38;4.22;;;;;;;-0.64;41.76;95190.81;5068046;28;20036;-76
2022/03/10 09:08:01;;;;;;;7.78;3.95;;;;;;;-0.59;41.61;95186.38;5069021;28;20086;-75
2022/03/10 09:10:27;;;;;;;7.82;3.88;;;;;;;-0.65;41.77;95186.59;5067550;28;20025;-75
2022/03/10 09:12:52;;;;;;;6.57;3.80;;;;;;;-0.69;42.80;95185.88;5089694;28;20183;-75
2022/03/10 09:15:18;;;;;;;6.30;3.97;;;;;;;-0.76;44.37;95189.50;5090964;28;20024;-76
2022/03/10 09:17:43;;;;;;;7.63;4.10;;;;;;;-0.79;42.59;95189.59;5085825;28;20039;-76
2022/03/10 09:20:11;;;;;;;5.57;3.75;;;;;;;-0.73;43.54;95185.13;5074524;28;20490;-76
2022/03/10 09:22:36;;;;;;;5.57;3.70;;;;;;;-0.48;43.86;95184.31;5062706;28;20024;-75
2022/03/10 09:25:05;;;;;;;7.00;4.20;;;;;;;-0.44;42.94;95179.97;5060142;28;20028;-75
2022/03/10 09:27:31;;;;;;;5.60;3.70;;;;;;;-0.32;41.03;95182.06;5071491;28;20031;-75
2022/03/10 09:29:57;;;;;;;5.95;3.60;;;;;;;-0.24;41.46;95174.97;5071500;28;20532;-76
2022/03/10 09:32:23;;;;;;;6.53;4.13;;;;;;;-0.15;42.20;95173.81;5082440;28;20034;-75
2022/03/10 09:34:49;;;;;;;16.98;7.00;;;;;;;-0.04;42.75;95171.72;5076671;28;20028;-75
2022/03/10 09:37:14;;;;;;;9.50;4.95;;;;;;;0.15;42.24;95182.13;5077194;28;20029;-75
2022/03/10 09:39:40;;;;;;;6.68;3.42;;;;;;;0.21;41.32;95180.16;5086761;28;20056;-75
2022/03/10 09:42:05;;;;;;;6.45;2.95;;;;;;;0.20;39.62;95177.69;5085854;28;20072;-75
2022/03/10 09:44:32;;;;;;;5.25;3.10;;;;;;;0.20;40.49;95183.63;5067381;28;20044;-75
2022/03/10 09:47:02;;;;;;;4.93;2.88;;;;;;;0.21;41.78;95184.44;5071782;28;20062;-76
2022/03/10 09:49:27;;;;;;;5.30;2.85;;;;;;;0.28;38.96;95173.13;5072902;28;20055;-76
2022/03/10 09:51:53;;;;;;;161.27;72.43;;;;;;;0.29;42.19;95171.41;5080311;28;20066;-76
2022/03/10 09:54:18;;;;;;;23.70;13.35;;;;;;;0.40;41.52;95170.09;5070995;28;20043;-76
2022/03/10 09:56:44;;;;;;;4.75;3.33;;;;;;;0.47;39.03;95175.81;5084736;28;20016;-75
2022/03/10 09:59:10;;;;;;;3.78;2.70;;;;;;;0.43;38.95;95169.97;5079353;28;20086;-76
2022/03/10 10:01:35;;;;;;;5.10;3.10;;;;;;;0.41;38.61;95176.88;5069747;28;20462;-76
2022/03/10 10:04:01;;;;;;;3.05;2.30;;;;;;;0.33;37.12;95178.88;5079423;28;20036;-76
2022/03/10 10:06:26;;;;;;;3.92;2.50;;;;;;;0.19;38.48;95187.03;5073358;28;20418;-76
2022/03/10 10:08:55;;;;;;;4.90;3.03;;;;;;;-0.02;39.28;95193.78;5060688;28;20560;-76
2022/03/10 10:11:34;;;;;;;4.22;3.15;;;;;;;-0.28;38.09;95196.38;5078761;28;20028;-76
2022/03/10 10:13:59;;;;;;;4.35;2.42;;;;;;;-0.58;39.54;95178.69;5080812;28;20031;-76
2022/03/10 10:16:26;;;;;;;3.75;2.50;;;;;;;-0.64;40.00;95184.00;5080179;28;20542;-76
2022/03/10 10:18:56;;;;;;;4.03;2.88;;;;;;;-0.63;40.36;95178.00;5068037;28;20032;-76
2022/03/10 10:21:22;;;;;;;4.68;3.03;;;;;;;-0.49;41.74;95180.94;5080688;28;20024;-76
2022/03/10 10:23:47;;;;;;;4.47;3.15;;;;;;;-0.36;40.63;95183.91;5061535;28;20107;-76
2022/03/10 10:26:13;;;;;;;5.60;3.70;;;;;;;-0.36;40.28;95194.13;5078880;28;20031;-76
2022/03/10 10:28:42;;;;;;;5.30;3.70;;;;;;;-0.37;41.12;95189.88;5047857;28;20455;-76
2022/03/10 10:31:10;;;;;;;5.22;3.65;;;;;;;-0.44;40.32;95197.81;5080607;28;20024;-76
2022/03/10 10:33:36;;;;;;;5.22;3.38;;;;;;;-0.65;40.06;95194.25;5064150;28;20036;-75
2022/03/10 10:36:11;;;;;;;5.13;3.25;;;;;;;-0.69;39.85;95196.09;5077337;28;20041;-76
2022/03/10 10:38:37;;;;;;;5.68;3.22;;;;;;;-0.68;42.53;95197.75;5057819;28;20140;-75
2022/03/10 10:41:18;;;;;;;5.20;3.38;;;;;;;-0.69;41.03;95175.66;5082882;28;20040;-76
2022/03/10 10:43:46;;;;;;;5.05;3.40;;;;;;;-0.74;43.39;95200.50;5087080;28;20486;-74
2022/03/10 10:46:36;;;;;;;5.55;3.63;;;;;;;-0.61;42.32;95204.31;5090791;28;20111;-81
2022/03/10 10:49:08;;;;;;;7.68;3.65;;;;;;;-0.93;40.70;95193.41;5078038;28;20033;-76
2022/03/10 10:51:39;;;;;;;9.73;4.80;;;;;;;-0.86;40.93;95195.78;5069483;28;20036;-76
2022/03/10 10:54:09;;;;;;;9.30;5.07;;;;;;;-0.74;40.21;95193.66;5081515;28;20513;-76
2022/03/10 10:56:35;;;;;;;5.55;4.10;;;;;;;-0.73;42.08;95194.50;5080963;28;20482;-76
2022/03/10 10:59:02;;;;;;;5.05;3.05;;;;;;;-0.79;39.68;95192.97;5088852;28;20547;-75
2022/03/10 11:01:35;;;;;;;4.35;3.30;;;;;;;-0.76;41.37;95194.59;5090628;28;20028;-76
2022/03/10 11:04:01;;;;;;;5.15;3.08;;;;;;;-0.79;39.18;95177.69;5090116;28;20039;-76
2022/03/10 11:06:27;;;;;;;5.80;3.55;;;;;;;-0.70;40.93;95184.19;5084255;28;20030;-75
2022/03/10 11:08:53;;;;;;;5.53;3.50;;;;;;;-0.72;41.73;95185.97;5077569;28;20032;-77
2022/03/10 11:11:20;;;;;;;4.75;3.45;;;;;;;-0.65;40.06;95189.97;5065716;28;20021;-77
2022/03/10 11:13:46;;;;;;;8.95;4.75;;;;;;;-0.59;40.91;95179.56;5053976;28;20040;-79
2022/03/10 11:16:12;;;;;;;9.43;4.38;;;;;;;-0.73;43.06;95174.09;5077379;28;20521;-77
2022/03/10 11:18:39;;;;;;;9.52;5.13;;;;;;;-0.82;44.68;95182.88;5070606;28;20040;-76
2022/03/10 11:21:26;;;;;;;7.78;4.25;;;;;;;-0.83;45.26;95183.78;5050903;28;20016;-77
2022/03/10 11:24:33;;;;;;;8.07;4.07;;;;;;;-0.78;44.98;95186.16;5064461;28;20043;-76
2022/03/10 11:27:12;;;;;;;11.70;6.55;;;;;;;-0.70;45.73;95196.94;5079417;28;20185;-76
2022/03/10 11:29:38;;;;;;;17.02;8.13;;;;;;;-0.68;46.26;95200.28;5073531;28;20040;-75